createdAt,value
2023-04-23T00:02:15.437Z,99227.16
2023-04-23T00:04:49.915Z,99230.34
2023-04-23T00:07:18.800Z,99232.33
2023-04-23T00:09:45.535Z,99237.47
2023-04-23T00:12:12.884Z,99231.56
2023-04-23T00:14:40.007Z,99230.48
2023-04-23T00:17:06.976Z,99232.10
2023-04-23T00:19:34.059Z,99229.91
2023-04-23T00:22:01.124Z,99233.98
2023-04-23T00:24:28.019Z,99234.42
2023-04-23T00:26:54.978Z,99240.98
2023-04-23T00:29:21.754Z,99237.56
2023-04-23T00:31:48.724Z,99241.69
2023-04-23T00:34:15.502Z,99238.32
2023-04-23T00:36:42.765Z,99238.33
2023-04-23T00:39:10.915Z,99241.30
2023-04-23T00:41:37.794Z,99240.30
2023-04-23T00:44:04.835Z,99240.39
2023-04-23T00:46:32.686Z,99239.30
2023-04-23T00:48:59.554Z,99237.31
2023-04-23T00:51:26.259Z,99237.12
2023-04-23T00:53:53.173Z,99237.14
2023-04-23T00:56:20.186Z,99234.41
2023-04-23T00:58:46.916Z,99233.98
2023-04-23T01:01:14.440Z,99231.91
2023-04-23T01:03:42.778Z,99233.70
2023-04-23T01:06:09.785Z,99236.88
2023-04-23T01:08:36.756Z,99237.73
2023-04-23T01:11:03.805Z,99237.95
2023-04-23T01:13:32.331Z,99237.13
2023-04-23T01:15:59.438Z,99242.75
2023-04-23T01:18:27.058Z,99241.27
2023-04-23T01:20:53.844Z,99242.90
2023-04-23T01:23:21.266Z,99243.62
2023-04-23T01:25:48.084Z,99243.69
2023-04-23T01:28:15.765Z,99244.62
2023-04-23T01:30:43.333Z,99242.23
2023-04-23T01:33:10.979Z,99242.42
2023-04-23T01:35:37.933Z,99242.40
2023-04-23T01:38:05.360Z,99243.41
2023-04-23T01:40:32.121Z,99245.38
2023-04-23T01:42:58.898Z,99241.64
2023-04-23T01:45:26.002Z,99241.44
2023-04-23T01:47:53.020Z,99241.02
2023-04-23T01:50:22.668Z,99238.21
2023-04-23T01:52:50.432Z,99241.58
2023-04-23T01:55:18.689Z,99243.45
2023-04-23T01:57:46.330Z,99244.03
2023-04-23T02:00:15.169Z,99245.02
2023-04-23T02:02:44.114Z,99243.64
2023-04-23T02:05:16.000Z,99244.47
2023-04-23T02:07:43.345Z,99240.53
2023-04-23T02:10:10.395Z,99245.14
2023-04-23T02:12:38.434Z,99246.08
2023-04-23T02:15:06.855Z,99246.70
2023-04-23T02:17:34.782Z,99245.48
2023-04-23T02:20:01.936Z,99244.16
2023-04-23T02:22:29.434Z,99250.94
2023-04-23T02:24:56.365Z,99252.45
2023-04-23T02:27:23.521Z,99251.39
2023-04-23T02:29:51.285Z,99253.45
2023-04-23T02:32:18.057Z,99250.24
2023-04-23T02:34:44.762Z,99248.98
2023-04-23T02:37:11.515Z,99249.80
2023-04-23T02:39:38.414Z,99250.78
2023-04-23T02:42:06.248Z,99253.39
2023-04-23T02:44:33.208Z,99253.23
2023-04-23T02:47:00.717Z,99257.16
2023-04-23T02:49:27.631Z,99258.30
2023-04-23T02:51:54.535Z,99260.64
2023-04-23T02:54:21.393Z,99265.16
2023-04-23T02:56:48.172Z,99272.89
2023-04-23T02:59:15.224Z,99269.27
2023-04-23T03:01:44.597Z,99266.42
2023-04-23T03:04:11.856Z,99268.48
2023-04-23T03:06:38.915Z,99264.58
2023-04-23T03:09:06.072Z,99267.69
2023-04-23T03:11:33.439Z,99269.02
2023-04-23T03:14:00.154Z,99271.66
2023-04-23T03:16:27.841Z,99265.10
2023-04-23T03:18:54.990Z,99267.89
2023-04-23T03:21:21.707Z,99264.62
2023-04-23T03:23:49.421Z,99270.92
2023-04-23T03:26:16.918Z,99274.61
2023-04-23T03:28:43.918Z,99274.94
2023-04-23T03:31:10.737Z,99277.05
2023-04-23T03:33:37.582Z,99280.36
2023-04-23T03:36:05.152Z,99282.98
2023-04-23T03:38:32.307Z,99281.64
2023-04-23T03:41:00.948Z,99285.06
2023-04-23T03:43:27.997Z,99288.98
2023-04-23T03:46:03.799Z,99288.06
2023-04-23T03:48:33.319Z,99292.13
2023-04-23T03:51:02.602Z,99290.66
2023-04-23T03:53:39.752Z,99290.63
2023-04-23T03:56:27.056Z,99291.16
2023-04-23T03:59:12.169Z,99293.11
2023-04-23T04:01:39.204Z,99296.17
2023-04-23T04:04:06.275Z,99301.39
2023-04-23T04:06:33.760Z,99305.81
2023-04-23T04:09:00.594Z,99309.27
2023-04-23T04:11:28.161Z,99307.86
2023-04-23T04:13:54.974Z,99312.64
2023-04-23T04:16:22.705Z,99313.63
2023-04-23T04:18:49.568Z,99317.19
2023-04-23T04:21:16.787Z,99320.27
2023-04-23T04:23:47.060Z,99324.77
2023-04-23T04:26:14.763Z,99323.79
2023-04-23T04:28:41.456Z,99325.20
2023-04-23T04:31:09.791Z,99328.30
2023-04-23T04:33:39.219Z,99326.02
2023-04-23T04:36:08.804Z,99331.20
2023-04-23T04:38:38.570Z,99332.20
2023-04-23T04:41:07.076Z,99335.68
2023-04-23T04:43:34.149Z,99335.63
2023-04-23T04:46:01.017Z,99331.90
2023-04-23T04:48:27.768Z,99334.19
2023-04-23T04:50:54.503Z,99333.86
2023-04-23T04:53:21.499Z,99338.47
2023-04-23T04:55:48.281Z,99339.86
2023-04-23T04:58:15.305Z,99344.27
2023-04-23T05:00:42.769Z,99344.02
2023-04-23T05:03:12.520Z,99344.09
2023-04-23T05:05:40.839Z,99344.57
2023-04-23T05:08:08.836Z,99341.95
2023-04-23T05:10:35.615Z,99342.98
2023-04-23T05:13:02.600Z,99342.05
2023-04-23T05:15:29.669Z,99347.89
2023-04-23T05:17:56.852Z,99351.58
2023-04-23T05:20:23.703Z,99355.71
2023-04-23T05:22:50.569Z,99355.23
2023-04-23T05:25:17.313Z,99356.58
2023-04-23T05:27:44.119Z,99358.47
2023-04-23T05:30:11.076Z,99358.68
2023-04-23T05:32:38.763Z,99356.09
2023-04-23T05:35:06.395Z,99361.91
2023-04-23T05:37:33.271Z,99360.55
2023-04-23T05:40:00.493Z,99366.51
2023-04-23T05:42:27.207Z,99367.19
2023-04-23T05:44:55.296Z,99368.77
2023-04-23T05:47:22.064Z,99367.23
2023-04-23T05:49:48.941Z,99368.45
2023-04-23T05:52:15.816Z,99373.04
2023-04-23T05:54:42.683Z,99378.90
2023-04-23T05:57:11.066Z,99379.19
2023-04-23T05:59:39.353Z,99381.50
2023-04-23T06:02:08.071Z,99382.32
2023-04-23T06:04:35.833Z,99381.18
2023-04-23T06:07:03.480Z,99384.77
2023-04-23T06:09:30.224Z,99390.14
2023-04-23T06:11:58.670Z,99392.44
2023-04-23T06:14:25.721Z,99394.27
2023-04-23T06:16:52.435Z,99400.55
2023-04-23T06:19:19.330Z,99402.13
2023-04-23T06:21:46.131Z,99407.32
2023-04-23T06:24:12.902Z,99411.17
2023-04-23T06:26:39.740Z,99414.56
2023-04-23T06:29:10.237Z,99423.56
2023-04-23T06:31:59.109Z,99424.35
2023-04-23T06:34:25.840Z,99427.25
2023-04-23T06:36:53.671Z,99430.84
2023-04-23T06:39:21.860Z,99433.92
2023-04-23T06:41:48.836Z,99436.79
2023-04-23T06:44:42.501Z,99438.17
2023-04-23T06:47:09.826Z,99445.81
2023-04-23T06:49:36.805Z,99444.21
2023-04-23T06:52:03.830Z,99447.63
2023-04-23T06:54:33.355Z,99445.88
2023-04-23T06:57:00.879Z,99445.75
2023-04-23T06:59:27.603Z,99443.60
2023-04-23T07:01:54.792Z,99447.55
2023-04-23T07:04:21.551Z,99444.11
2023-04-23T07:06:48.446Z,99444.21
2023-04-23T07:09:15.240Z,99442.47
2023-04-23T07:11:41.992Z,99447.00
2023-04-23T07:14:10.542Z,99449.80
2023-04-23T07:16:37.482Z,99453.95
2023-04-23T07:19:04.183Z,99453.80
2023-04-23T07:21:32.430Z,99454.38
2023-04-23T07:24:00.207Z,99456.08
2023-04-23T07:26:27.324Z,99455.87
2023-04-23T07:28:54.381Z,99453.16
2023-04-23T07:31:28.871Z,99453.66
2023-04-23T07:33:55.969Z,99454.90
2023-04-23T07:36:22.821Z,99456.59
2023-04-23T07:38:50.439Z,99453.59
2023-04-23T07:41:17.701Z,99453.45
2023-04-23T07:43:44.882Z,99456.16
2023-04-23T07:46:11.954Z,99458.09
2023-04-23T07:48:39.220Z,99457.55
2023-04-23T07:51:06.070Z,99462.50
2023-04-23T07:53:33.105Z,99456.67
2023-04-23T07:56:00.343Z,99458.33
2023-04-23T07:58:27.443Z,99462.92
2023-04-23T08:00:54.198Z,99464.45
2023-04-23T08:03:21.973Z,99463.86
2023-04-23T08:05:49.097Z,99464.67
2023-04-23T08:08:15.967Z,99462.91
2023-04-23T08:10:42.765Z,99460.69
2023-04-23T08:13:09.617Z,99460.94
2023-04-23T08:15:36.575Z,99457.75
2023-04-23T08:18:04.059Z,99458.66
2023-04-23T08:20:31.769Z,99457.23
2023-04-23T08:22:58.671Z,99453.34
2023-04-23T08:25:25.436Z,99453.54
2023-04-23T08:27:52.274Z,99453.41
2023-04-23T08:30:19.156Z,99453.41
2023-04-23T08:32:48.633Z,99455.93
2023-04-23T08:35:15.513Z,99455.17
2023-04-23T08:37:42.303Z,99448.95
2023-04-23T08:40:09.398Z,99448.27
2023-04-23T08:42:43.594Z,99445.08
2023-04-23T08:45:10.988Z,99444.30
2023-04-23T08:47:42.301Z,99439.56
2023-04-23T08:50:13.934Z,99433.55
2023-04-23T08:52:44.359Z,99430.68
2023-04-23T08:55:11.634Z,99431.55
2023-04-23T08:57:39.674Z,99429.94
2023-04-23T09:00:10.357Z,99429.23
2023-04-23T09:02:42.370Z,99424.40
2023-04-23T09:05:09.428Z,99428.52
2023-04-23T09:07:36.357Z,99427.96
2023-04-23T09:10:04.102Z,99423.98
2023-04-23T09:12:31.087Z,99420.83
2023-04-23T09:14:57.857Z,99421.67
2023-04-23T09:17:26.656Z,99417.95
2023-04-23T09:19:53.621Z,99416.13
2023-04-23T09:22:39.911Z,99415.52
2023-04-23T09:25:10.713Z,99411.39
2023-04-23T09:27:38.028Z,99408.88
2023-04-23T09:30:07.855Z,99409.58
2023-04-23T09:32:35.720Z,99409.77
2023-04-23T09:35:06.818Z,99404.35
2023-04-23T09:37:34.550Z,99404.57
2023-04-23T09:40:05.119Z,99405.34
2023-04-23T09:42:32.588Z,99407.70
2023-04-23T09:45:03.633Z,99412.33
2023-04-23T09:47:34.405Z,99410.83
2023-04-23T09:50:01.379Z,99409.81
2023-04-23T09:52:30.166Z,99407.59
2023-04-23T09:54:58.731Z,99409.16
2023-04-23T09:57:25.999Z,99410.63
2023-04-23T10:00:06.979Z,99413.52
2023-04-23T10:02:48.607Z,99411.02
2023-04-23T10:07:50.735Z,99408.60
2023-04-23T10:10:19.305Z,99411.56
2023-04-23T10:12:55.017Z,99415.17
2023-04-23T10:15:24.691Z,99414.09
2023-04-23T10:17:52.089Z,99404.58
2023-04-23T10:20:20.717Z,99401.58
2023-04-23T10:22:47.584Z,99405.23
2023-04-23T10:25:14.415Z,99406.51
2023-04-23T10:27:53.958Z,99405.45
2023-04-23T10:30:22.264Z,99408.98
2023-04-23T10:32:49.917Z,99410.27
2023-04-23T10:35:16.978Z,99404.57
2023-04-23T10:37:44.075Z,99399.31
2023-04-23T10:40:13.549Z,99398.14
2023-04-23T10:42:40.601Z,99397.53
2023-04-23T10:45:23.358Z,99390.67
2023-04-23T10:47:54.725Z,99393.92
2023-04-23T10:50:26.498Z,99389.38
2023-04-23T10:52:54.176Z,99381.83
2023-04-23T10:55:22.596Z,99386.48
2023-04-23T10:58:01.899Z,99388.74
2023-04-23T11:00:44.764Z,99385.70
2023-04-23T11:03:44.010Z,99386.02
2023-04-23T11:06:37.393Z,99387.55
2023-04-23T11:09:34.822Z,99389.33
2023-04-23T11:12:03.509Z,99381.17
2023-04-23T11:14:35.676Z,99382.06
2023-04-23T11:17:04.182Z,99380.96
2023-04-23T11:19:36.329Z,99381.77
2023-04-23T11:22:19.962Z,99385.48
2023-04-23T11:24:49.493Z,99389.02
2023-04-23T11:27:18.024Z,99385.13
2023-04-23T11:29:45.991Z,99391.24
2023-04-23T11:32:15.017Z,99385.84
2023-04-23T11:34:47.001Z,99380.95
2023-04-23T11:37:14.891Z,99373.21
2023-04-23T11:39:51.068Z,99377.81
2023-04-23T11:42:19.693Z,99368.37
2023-04-23T11:44:47.460Z,99375.96
2023-04-23T11:47:16.139Z,99374.06
2023-04-23T11:49:43.899Z,99375.44
2023-04-23T11:52:11.484Z,99378.79
2023-04-23T11:54:41.559Z,99369.88
2023-04-23T11:57:09.458Z,99367.42
2023-04-23T11:59:36.301Z,99369.41
2023-04-23T12:02:03.314Z,99370.18
2023-04-23T12:04:30.993Z,99367.71
2023-04-23T12:06:58.359Z,99372.51
2023-04-23T12:09:27.183Z,99369.61
2023-04-23T12:11:53.950Z,99362.16
2023-04-23T12:14:28.099Z,99360.29
2023-04-23T12:16:55.516Z,99358.58
2023-04-23T12:19:27.850Z,99356.33
2023-04-23T12:22:02.076Z,99359.99
2023-04-23T12:24:46.451Z,99350.80
2023-04-23T12:27:15.158Z,99356.72
2023-04-23T12:29:43.369Z,99355.23
2023-04-23T12:32:11.550Z,99355.96
2023-04-23T12:34:52.367Z,99352.26
2023-04-23T12:37:29.099Z,99345.12
2023-04-23T12:39:58.573Z,99343.66
2023-04-23T12:42:26.567Z,99341.92
2023-04-23T12:44:58.010Z,99337.42
2023-04-23T12:47:25.303Z,99335.59
2023-04-23T12:49:56.134Z,99336.95
2023-04-23T12:52:22.947Z,99331.45
2023-04-23T12:54:55.679Z,99332.48
2023-04-23T12:57:23.825Z,99335.13
2023-04-23T12:59:51.042Z,99336.52
2023-04-23T13:02:18.200Z,99335.43
2023-04-23T13:04:46.012Z,99337.73
2023-04-23T13:07:14.093Z,99332.24
2023-04-23T13:09:40.930Z,99327.93
2023-04-23T13:12:08.018Z,99329.46
2023-04-23T13:14:42.421Z,99328.59
2023-04-23T13:17:09.145Z,99331.27
2023-04-23T13:19:40.083Z,99329.15
2023-04-23T13:22:07.302Z,99329.52
2023-04-23T13:24:34.641Z,99329.03
2023-04-23T13:27:01.445Z,99325.29
2023-04-23T13:29:29.573Z,99322.27
2023-04-23T13:31:56.656Z,99324.02
2023-04-23T13:34:23.525Z,99322.87
2023-04-23T13:36:50.560Z,99318.45
2023-04-23T13:39:18.133Z,99318.48
2023-04-23T13:41:47.829Z,99319.55
2023-04-23T13:44:18.393Z,99319.45
2023-04-23T13:46:45.277Z,99314.70
2023-04-23T13:49:12.427Z,99315.74
2023-04-23T13:51:39.352Z,99318.29
2023-04-23T13:54:06.157Z,99312.02
2023-04-23T13:56:33.848Z,99315.89
2023-04-23T14:01:33.341Z,99318.62
2023-04-23T14:04:00.384Z,99319.99
2023-04-23T14:06:29.641Z,99321.16
2023-04-23T14:08:56.998Z,99321.52
2023-04-23T14:11:24.882Z,99317.61
2023-04-23T14:13:52.028Z,99316.05
2023-04-23T14:16:18.833Z,99316.31
2023-04-23T14:18:45.892Z,99317.21
2023-04-23T14:21:14.904Z,99308.46
2023-04-23T14:23:44.405Z,99311.01
2023-04-23T14:26:11.013Z,99310.19
2023-04-23T14:28:44.991Z,99309.72
2023-04-23T14:31:12.067Z,99306.96
2023-04-23T14:33:38.832Z,99303.83
2023-04-23T14:36:08.241Z,99300.44
2023-04-23T14:38:35.975Z,99305.34
2023-04-23T14:41:05.181Z,99302.43
2023-04-23T14:43:33.647Z,99304.40
2023-04-23T14:46:01.217Z,99298.29
2023-04-23T14:48:28.584Z,99304.98
2023-04-23T14:50:55.308Z,99300.98
2023-04-23T14:53:22.075Z,99293.69
2023-04-23T14:55:48.876Z,99295.25
2023-04-23T14:58:15.670Z,99290.09
2023-04-23T15:00:42.454Z,99289.68
2023-04-23T15:03:10.409Z,99290.66
2023-04-23T15:05:39.437Z,99289.79
2023-04-23T15:08:06.233Z,99288.36
2023-04-23T15:10:33.165Z,99288.48
2023-04-23T15:13:12.599Z,99289.88
2023-04-23T15:15:47.692Z,99286.78
2023-04-23T15:18:14.785Z,99287.08
2023-04-23T15:20:42.409Z,99286.30
2023-04-23T15:23:09.883Z,99283.65
2023-04-23T15:25:38.676Z,99280.50
2023-04-23T15:28:06.499Z,99277.08
2023-04-23T15:30:33.677Z,99276.09
2023-04-23T15:33:00.649Z,99276.32
2023-04-23T15:35:29.097Z,99276.12
2023-04-23T15:37:56.672Z,99272.95
2023-04-23T15:40:23.690Z,99268.50
2023-04-23T15:42:50.414Z,99269.59
2023-04-23T15:45:17.596Z,99270.17
2023-04-23T15:47:44.661Z,99269.11
2023-04-23T15:50:12.279Z,99269.98
2023-04-23T15:52:41.192Z,99266.70
2023-04-23T15:55:08.537Z,99266.23
2023-04-23T15:57:35.424Z,99265.13
2023-04-23T16:00:02.401Z,99262.27
2023-04-23T16:02:39.335Z,99263.41
2023-04-23T16:05:06.476Z,99262.71
2023-04-23T16:07:33.481Z,99261.29
2023-04-23T16:10:00.333Z,99257.02
2023-04-23T16:12:27.413Z,99262.58
2023-04-23T16:14:54.308Z,99264.23
2023-04-23T16:17:22.407Z,99265.23
2023-04-23T16:19:49.301Z,99264.54
2023-04-23T16:22:16.987Z,99267.02
2023-04-23T16:24:44.087Z,99262.58
2023-04-23T16:27:11.465Z,99264.73
2023-04-23T16:29:38.292Z,99262.46
2023-04-23T16:32:06.451Z,99260.81
2023-04-23T16:34:34.279Z,99260.45
2023-04-23T16:37:00.959Z,99258.45
2023-04-23T16:39:27.663Z,99257.91
2023-04-23T16:41:54.571Z,99256.57
2023-04-23T16:44:21.464Z,99258.77
2023-04-23T16:46:48.348Z,99253.30
2023-04-23T16:49:15.129Z,99255.09
2023-04-23T16:51:41.932Z,99253.67
2023-04-23T16:54:08.679Z,99252.28
2023-04-23T16:56:36.845Z,99250.89
2023-04-23T16:59:04.030Z,99251.92
2023-04-23T17:01:31.134Z,99249.66
2023-04-23T17:03:58.140Z,99252.27
2023-04-23T17:06:27.321Z,99252.83
2023-04-23T17:08:57.122Z,99249.65
2023-04-23T17:11:25.026Z,99248.56
2023-04-23T17:13:53.134Z,99246.99
2023-04-23T17:16:20.483Z,99251.30
2023-04-23T17:18:47.607Z,99252.30
2023-04-23T17:21:15.766Z,99251.39
2023-04-23T17:23:42.535Z,99254.55
2023-04-23T17:26:09.793Z,99252.40
2023-04-23T17:28:36.791Z,99255.02
2023-04-23T17:31:03.594Z,99257.85
2023-04-23T17:33:30.742Z,99254.12
2023-04-23T17:35:57.502Z,99256.55
2023-04-23T17:38:25.418Z,99258.33
2023-04-23T17:40:52.354Z,99257.64
2023-04-23T17:43:19.596Z,99266.19
2023-04-23T17:45:47.057Z,99266.64
2023-04-23T17:48:14.227Z,99265.25
2023-04-23T17:50:41.567Z,99263.55
2023-04-23T17:53:09.394Z,99267.42
2023-04-23T17:55:36.678Z,99271.64
2023-04-23T17:58:06.593Z,99272.86
2023-04-23T18:00:38.278Z,99271.52
2023-04-23T18:03:05.857Z,99274.45
2023-04-23T18:05:35.016Z,99275.80
2023-04-23T18:08:02.043Z,99276.36
2023-04-23T18:10:29.250Z,99274.56
2023-04-23T18:12:56.328Z,99270.90
2023-04-23T18:15:25.005Z,99278.17
2023-04-23T18:17:55.098Z,99272.42
2023-04-23T18:20:24.896Z,99275.02
2023-04-23T18:22:55.642Z,99272.27
2023-04-23T18:25:24.810Z,99267.52
2023-04-23T18:27:52.311Z,99269.20
2023-04-23T18:30:22.592Z,99264.44
2023-04-23T18:33:28.668Z,99264.89
2023-04-23T18:35:58.749Z,99266.13
2023-04-23T18:38:40.054Z,99263.33
2023-04-23T18:41:06.823Z,99266.50
2023-04-23T18:43:34.411Z,99266.06
2023-04-23T18:46:01.521Z,99266.65
2023-04-23T18:48:35.089Z,99268.59
2023-04-23T18:51:12.564Z,99267.61
2023-04-23T18:53:39.264Z,99267.94
2023-04-23T18:56:06.008Z,99268.14
2023-04-23T18:58:32.873Z,99266.20
2023-04-23T19:01:00.263Z,99263.04
2023-04-23T19:03:28.645Z,99263.09
2023-04-23T19:05:55.521Z,99262.57
2023-04-23T19:08:27.699Z,99260.78
2023-04-23T19:10:55.533Z,99261.17
2023-04-23T19:13:22.362Z,99263.90
2023-04-23T19:15:50.265Z,99264.83
2023-04-23T19:18:17.355Z,99260.67
2023-04-23T19:20:44.345Z,99255.63
2023-04-23T19:23:14.651Z,99257.08
2023-04-23T19:25:41.647Z,99253.86
2023-04-23T19:28:08.422Z,99256.26
2023-04-23T19:30:35.316Z,99256.94
2023-04-23T19:33:03.889Z,99255.70
2023-04-23T19:35:31.213Z,99253.64
2023-04-23T19:37:58.417Z,99253.84
2023-04-23T19:40:25.281Z,99255.21
2023-04-23T19:42:52.183Z,99253.21
2023-04-23T19:45:19.101Z,99248.27
2023-04-23T19:47:45.967Z,99249.47
2023-04-23T19:50:13.267Z,99247.17
2023-04-23T19:52:40.618Z,99245.89
2023-04-23T19:55:07.801Z,99247.14
2023-04-23T19:57:35.293Z,99248.03
2023-04-23T20:00:05.359Z,99246.16
2023-04-23T20:02:34.400Z,99245.48
2023-04-23T20:05:04.349Z,99239.17
2023-04-23T20:07:32.221Z,99238.21
2023-04-23T20:09:59.018Z,99236.47
2023-04-23T20:12:25.778Z,99239.23
2023-04-23T20:14:53.744Z,99238.66
2023-04-23T20:17:20.566Z,99236.45
2023-04-23T20:19:49.073Z,99234.96
2023-04-23T20:22:16.001Z,99237.63
2023-04-23T20:24:45.831Z,99235.92
2023-04-23T20:27:12.614Z,99237.12
2023-04-23T20:29:39.544Z,99238.69
2023-04-23T20:32:06.551Z,99238.65
2023-04-23T20:34:33.642Z,99235.31
2023-04-23T20:37:01.585Z,99233.77
2023-04-23T20:39:29.117Z,99233.63
2023-04-23T20:41:57.311Z,99230.13
2023-04-23T20:44:24.956Z,99232.71
2023-04-23T20:46:52.332Z,99231.69
2023-04-23T20:49:19.142Z,99232.13
2023-04-23T20:51:46.128Z,99230.56
2023-04-23T20:54:12.938Z,99228.96
2023-04-23T20:56:40.117Z,99234.70
2023-04-23T20:59:06.927Z,99235.57
2023-04-23T21:01:33.913Z,99233.55
2023-04-23T21:04:01.017Z,99234.98
2023-04-23T21:06:30.660Z,99235.98
2023-04-23T21:08:57.695Z,99236.67
2023-04-23T21:11:25.573Z,99238.58
2023-04-23T21:13:52.602Z,99236.45
2023-04-23T21:16:19.485Z,99238.14
2023-04-23T21:18:46.246Z,99230.98
2023-04-23T21:21:13.036Z,99229.11
2023-04-23T21:23:39.857Z,99234.23
2023-04-23T21:26:07.978Z,99231.84
2023-04-23T21:28:35.772Z,99235.56
2023-04-23T21:31:43.490Z,99234.70
2023-04-23T21:34:10.256Z,99235.05
2023-04-23T21:36:37.129Z,99235.37
2023-04-23T21:39:03.947Z,99238.80
2023-04-23T21:41:30.708Z,99234.48
2023-04-23T21:43:57.556Z,99229.83
2023-04-23T21:46:24.444Z,99230.20
2023-04-23T21:48:52.907Z,99227.31
2023-04-23T21:51:22.663Z,99225.08
2023-04-23T21:53:49.419Z,99225.23
2023-04-23T21:56:16.544Z,99222.30
2023-04-23T21:58:43.970Z,99224.48
2023-04-23T22:01:10.823Z,99223.69
2023-04-23T22:03:41.533Z,99224.50
2023-04-23T22:06:09.212Z,99223.33
2023-04-23T22:08:39.661Z,99221.64
2023-04-23T22:11:07.428Z,99225.23
2023-04-23T22:13:34.964Z,99222.72
2023-04-23T22:16:03.922Z,99217.61
2023-04-23T22:18:34.718Z,99215.63
2023-04-23T22:21:01.488Z,99213.58
2023-04-23T22:23:28.378Z,99209.02
2023-04-23T22:25:55.161Z,99208.48
2023-04-23T22:28:21.981Z,99208.54
2023-04-23T22:30:49.349Z,99207.66
2023-04-23T22:33:16.298Z,99208.54
2023-04-23T22:35:43.036Z,99208.59
2023-04-23T22:38:10.160Z,99206.45
2023-04-23T22:40:36.899Z,99208.31
2023-04-23T22:43:03.618Z,99206.86
2023-04-23T22:45:30.409Z,99206.71
2023-04-23T22:47:57.454Z,99204.91
2023-04-23T22:50:24.253Z,99208.11
2023-04-23T22:52:51.628Z,99201.70
2023-04-23T22:55:18.369Z,99203.11
2023-04-23T22:57:45.505Z,99200.79
2023-04-23T23:00:12.997Z,99192.20
2023-04-23T23:02:39.969Z,99191.83
2023-04-23T23:05:07.231Z,99191.20
2023-04-23T23:07:34.092Z,99189.42
2023-04-23T23:10:03.084Z,99182.89
2023-04-23T23:12:30.210Z,99182.81
2023-04-23T23:14:56.946Z,99178.81
2023-04-23T23:17:23.810Z,99178.58
2023-04-23T23:19:50.690Z,99181.80
2023-04-23T23:22:17.430Z,99178.36
2023-04-23T23:24:44.563Z,99174.52
2023-04-23T23:27:11.323Z,99175.50
2023-04-23T23:29:38.244Z,99174.79
2023-04-23T23:32:04.975Z,99174.23
2023-04-23T23:34:32.024Z,99172.23
2023-04-23T23:36:58.764Z,99172.55
2023-04-23T23:39:26.819Z,99170.79
2023-04-23T23:41:53.660Z,99169.64
2023-04-23T23:44:20.509Z,99161.48
2023-04-23T23:46:47.297Z,99165.84
2023-04-23T23:49:14.262Z,99163.48
2023-04-23T23:51:41.008Z,99163.80
2023-04-23T23:54:07.733Z,99167.73
2023-04-23T23:56:34.490Z,99169.77
2023-04-23T23:59:01.237Z,99161.75
